sensor_id;sensor_type;location;lat;lon;timestamp;P1;durP1;ratioP1;P2;durP2;ratioP2
1701;SDS011;848;48.354;10.064;2024-01-15T00:00:28;9.32;;;6.15;;
1701;SDS011;848;48.354;10.064;2024-01-15T00:02:55;10.02;;;5.75;;
1701;SDS011;848;48.354;10.064;2024-01-15T00:05:22;13.32;;;7.38;;
1701;SDS011;848;48.354;10.064;2024-01-15T00:07:49;11.05;;;5.10;;
1701;SDS011;848;48.354;10.064;2024-01-15T00:10:20;11.40;;;6.05;;
1701;SDS011;848;48.354;10.064;2024-01-15T00:12:47;13.43;;;6.07;;
1701;SDS011;848;48.354;10.064;2024-01-15T00:15:14;13.43;;;5.78;;
1701;SDS011;848;48.354;10.064;2024-01-15T00:17:41;15.35;;;6.70;;
1701;SDS011;848;48.354;10.064;2024-01-15T00:20:08;7.18;;;3.88;;
1701;SDS011;848;48.354;10.064;2024-01-15T00:22:35;16.00;;;6.80;;
1701;SDS011;848;48.354;10.064;2024-01-15T00:25:02;8.60;;;5.63;;
1701;SDS011;848;48.354;10.064;2024-01-15T00:27:31;11.70;;;6.32;;
1701;SDS011;848;48.354;10.064;2024-01-15T00:29:58;9.10;;;5.05;;
1701;SDS011;848;48.354;10.064;2024-01-15T00:32:25;17.65;;;6.75;;
1701;SDS011;848;48.354;10.064;2024-01-15T00:34:52;16.83;;;7.68;;
1701;SDS011;848;48.354;10.064;2024-01-15T00:37:19;13.35;;;4.65;;
1701;SDS011;848;48.354;10.064;2024-01-15T00:39:46;8.93;;;4.63;;
1701;SDS011;848;48.354;10.064;2024-01-15T00:42:16;14.60;;;6.30;;
1701;SDS011;848;48.354;10.064;2024-01-15T00:44:44;13.77;;;7.00;;
1701;SDS011;848;48.354;10.064;2024-01-15T00:47:11;9.55;;;5.10;;
1701;SDS011;848;48.354;10.064;2024-01-15T00:49:38;12.45;;;5.97;;
1701;SDS011;848;48.354;10.064;2024-01-15T00:52:05;13.10;;;5.22;;
1701;SDS011;848;48.354;10.064;2024-01-15T00:54:32;13.38;;;4.70;;
1701;SDS011;848;48.354;10.064;2024-01-15T00:56:58;10.27;;;6.10;;
1701;SDS011;848;48.354;10.064;2024-01-15T00:59:25;10.82;;;5.20;;
1701;SDS011;848;48.354;10.064;2024-01-15T01:01:53;14.07;;;4.75;;
1701;SDS011;848;48.354;10.064;2024-01-15T01:04:20;8.73;;;5.82;;
1701;SDS011;848;48.354;10.064;2024-01-15T01:06:47;13.95;;;5.43;;
1701;SDS011;848;48.354;10.064;2024-01-15T01:09:14;10.35;;;5.60;;
1701;SDS011;848;48.354;10.064;2024-01-15T01:11:41;11.98;;;5.60;;
1701;SDS011;848;48.354;10.064;2024-01-15T01:14:08;10.38;;;7.10;;
1701;SDS011;848;48.354;10.064;2024-01-15T01:16:35;9.88;;;5.22;;
1701;SDS011;848;48.354;10.064;2024-01-15T01:19:05;14.50;;;5.45;;
1701;SDS011;848;48.354;10.064;2024-01-15T01:21:32;14.15;;;5.13;;
1701;SDS011;848;48.354;10.064;2024-01-15T01:23:59;18.35;;;6.65;;
1701;SDS011;848;48.354;10.064;2024-01-15T01:26:29;12.00;;;5.60;;
1701;SDS011;848;48.354;10.064;2024-01-15T01:28:56;13.07;;;4.68;;
1701;SDS011;848;48.354;10.064;2024-01-15T01:31:24;8.15;;;4.60;;
1701;SDS011;848;48.354;10.064;2024-01-15T01:33:51;14.40;;;5.80;;
1701;SDS011;848;48.354;10.064;2024-01-15T01:36:19;11.48;;;5.50;;
1701;SDS011;848;48.354;10.064;2024-01-15T01:38:46;9.18;;;5.43;;
1701;SDS011;848;48.354;10.064;2024-01-15T01:41:13;11.25;;;5.90;;
1701;SDS011;848;48.354;10.064;2024-01-15T01:43:40;9.40;;;5.75;;
1701;SDS011;848;48.354;10.064;2024-01-15T01:46:07;15.90;;;5.78;;
1701;SDS011;848;48.354;10.064;2024-01-15T01:48:34;14.25;;;5.45;;
1701;SDS011;848;48.354;10.064;2024-01-15T01:51:02;9.55;;;5.10;;
1701;SDS011;848;48.354;10.064;2024-01-15T01:53:34;11.25;;;6.00;;
1701;SDS011;848;48.354;10.064;2024-01-15T01:56:05;13.93;;;5.50;;
1701;SDS011;848;48.354;10.064;2024-01-15T01:58:32;9.82;;;5.43;;
1701;SDS011;848;48.354;10.064;2024-01-15T02:01:00;10.88;;;6.47;;
1701;SDS011;848;48.354;10.064;2024-01-15T02:03:27;13.38;;;5.22;;
1701;SDS011;848;48.354;10.064;2024-01-15T02:05:54;11.07;;;6.13;;
1701;SDS011;848;48.354;10.064;2024-01-15T02:08:22;15.43;;;6.22;;
1701;SDS011;848;48.354;10.064;2024-01-15T02:10:51;12.02;;;5.20;;
1701;SDS011;848;48.354;10.064;2024-01-15T02:13:18;8.50;;;4.40;;
1701;SDS011;848;48.354;10.064;2024-01-15T02:15:45;11.43;;;5.68;;
1701;SDS011;848;48.354;10.064;2024-01-15T02:18:12;9.13;;;5.72;;
1701;SDS011;848;48.354;10.064;2024-01-15T02:20:39;10.32;;;5.82;;
1701;SDS011;848;48.354;10.064;2024-01-15T02:23:10;12.75;;;6.03;;
1701;SDS011;848;48.354;10.064;2024-01-15T02:25:38;9.45;;;6.07;;
1701;SDS011;848;48.354;10.064;2024-01-15T02:28:07;12.10;;;5.22;;
1701;SDS011;848;48.354;10.064;2024-01-15T02:30:36;15.38;;;6.30;;
1701;SDS011;848;48.354;10.064;2024-01-15T02:33:04;9.95;;;4.85;;
1701;SDS011;848;48.354;10.064;2024-01-15T02:35:31;12.57;;;8.40;;
1701;SDS011;848;48.354;10.064;2024-01-15T02:37:59;12.73;;;5.90;;
1701;SDS011;848;48.354;10.064;2024-01-15T02:40:27;15.68;;;6.75;;
1701;SDS011;848;48.354;10.064;2024-01-15T02:42:56;14.68;;;5.35;;
1701;SDS011;848;48.354;10.064;2024-01-15T02:45:23;10.25;;;4.70;;
1701;SDS011;848;48.354;10.064;2024-01-15T02:47:50;13.63;;;4.70;;
1701;SDS011;848;48.354;10.064;2024-01-15T02:50:17;8.88;;;4.95;;
1701;SDS011;848;48.354;10.064;2024-01-15T02:52:44;10.10;;;5.43;;
1701;SDS011;848;48.354;10.064;2024-01-15T02:55:11;10.90;;;5.22;;
1701;SDS011;848;48.354;10.064;2024-01-15T02:57:39;12.82;;;5.05;;
1701;SDS011;848;48.354;10.064;2024-01-15T03:00:06;6.82;;;4.03;;
1701;SDS011;848;48.354;10.064;2024-01-15T03:02:36;10.15;;;4.75;;
1701;SDS011;848;48.354;10.064;2024-01-15T03:05:04;12.38;;;4.97;;
1701;SDS011;848;48.354;10.064;2024-01-15T03:07:32;5.03;;;4.05;;
1701;SDS011;848;48.354;10.064;2024-01-15T03:09:59;7.80;;;4.05;;
1701;SDS011;848;48.354;10.064;2024-01-15T03:12:26;6.18;;;3.55;;
1701;SDS011;848;48.354;10.064;2024-01-15T03:14:55;9.43;;;5.07;;
1701;SDS011;848;48.354;10.064;2024-01-15T03:17:22;10.77;;;4.32;;
1701;SDS011;848;48.354;10.064;2024-01-15T03:19:48;5.05;;;4.10;;
1701;SDS011;848;48.354;10.064;2024-01-15T03:22:15;7.15;;;3.83;;
1701;SDS011;848;48.354;10.064;2024-01-15T03:24:42;5.68;;;3.63;;
1701;SDS011;848;48.354;10.064;2024-01-15T03:27:09;5.20;;;2.78;;
1701;SDS011;848;48.354;10.064;2024-01-15T03:29:36;9.88;;;3.72;;
1701;SDS011;848;48.354;10.064;2024-01-15T03:32:05;4.28;;;2.90;;
1701;SDS011;848;48.354;10.064;2024-01-15T03:34:32;8.25;;;4.25;;
1701;SDS011;848;48.354;10.064;2024-01-15T03:36:58;5.57;;;3.22;;
1701;SDS011;848;48.354;10.064;2024-01-15T03:39:25;8.00;;;4.40;;
1701;SDS011;848;48.354;10.064;2024-01-15T03:41:52;6.35;;;3.45;;
1701;SDS011;848;48.354;10.064;2024-01-15T03:44:19;5.50;;;3.30;;
1701;SDS011;848;48.354;10.064;2024-01-15T03:46:46;7.75;;;3.55;;
1701;SDS011;848;48.354;10.064;2024-01-15T03:49:14;8.90;;;4.25;;
1701;SDS011;848;48.354;10.064;2024-01-15T03:51:41;8.27;;;3.85;;
1701;SDS011;848;48.354;10.064;2024-01-15T03:54:10;9.63;;;4.32;;
1701;SDS011;848;48.354;10.064;2024-01-15T03:56:36;4.07;;;2.35;;
1701;SDS011;848;48.354;10.064;2024-01-15T03:59:03;6.72;;;3.33;;
1701;SDS011;848;48.354;10.064;2024-01-15T04:01:30;9.43;;;3.75;;
1701;SDS011;848;48.354;10.064;2024-01-15T04:03:57;5.63;;;3.63;;
1701;SDS011;848;48.354;10.064;2024-01-15T04:06:25;8.45;;;4.43;;
1701;SDS011;848;48.354;10.064;2024-01-15T04:08:52;6.20;;;3.05;;
1701;SDS011;848;48.354;10.064;2024-01-15T04:11:19;7.65;;;3.10;;
1701;SDS011;848;48.354;10.064;2024-01-15T04:13:47;5.50;;;3.10;;
1701;SDS011;848;48.354;10.064;2024-01-15T04:16:14;10.00;;;4.43;;
1701;SDS011;848;48.354;10.064;2024-01-15T04:18:41;6.03;;;3.55;;
1701;SDS011;848;48.354;10.064;2024-01-15T04:21:08;3.78;;;2.72;;
1701;SDS011;848;48.354;10.064;2024-01-15T04:23:36;7.50;;;2.47;;
1701;SDS011;848;48.354;10.064;2024-01-15T04:26:04;9.30;;;3.15;;
1701;SDS011;848;48.354;10.064;2024-01-15T04:28:33;7.28;;;4.40;;
1701;SDS011;848;48.354;10.064;2024-01-15T04:31:00;8.63;;;3.55;;
1701;SDS011;848;48.354;10.064;2024-01-15T04:33:27;4.75;;;3.08;;
1701;SDS011;848;48.354;10.064;2024-01-15T04:35:54;7.80;;;4.38;;
1701;SDS011;848;48.354;10.064;2024-01-15T04:38:21;9.13;;;3.40;;
1701;SDS011;848;48.354;10.064;2024-01-15T04:40:49;7.80;;;3.70;;
1701;SDS011;848;48.354;10.064;2024-01-15T04:43:16;6.45;;;2.55;;
1701;SDS011;848;48.354;10.064;2024-01-15T04:48:17;8.45;;;4.47;;
1701;SDS011;848;48.354;10.064;2024-01-15T04:50:44;7.93;;;3.95;;
1701;SDS011;848;48.354;10.064;2024-01-15T04:53:11;5.03;;;2.97;;
1701;SDS011;848;48.354;10.064;2024-01-15T04:55:38;7.57;;;3.25;;
1701;SDS011;848;48.354;10.064;2024-01-15T04:58:06;7.47;;;3.45;;
1701;SDS011;848;48.354;10.064;2024-01-15T05:00:33;4.43;;;2.67;;
1701;SDS011;848;48.354;10.064;2024-01-15T05:03:00;9.00;;;2.92;;
1701;SDS011;848;48.354;10.064;2024-01-15T05:05:27;6.25;;;3.17;;
1701;SDS011;848;48.354;10.064;2024-01-15T05:07:53;8.48;;;3.28;;
1701;SDS011;848;48.354;10.064;2024-01-15T05:10:20;4.70;;;3.70;;
1701;SDS011;848;48.354;10.064;2024-01-15T05:12:47;3.75;;;2.15;;
1701;SDS011;848;48.354;10.064;2024-01-15T05:15:16;4.93;;;3.40;;
1701;SDS011;848;48.354;10.064;2024-01-15T05:17:43;3.75;;;2.30;;
1701;SDS011;848;48.354;10.064;2024-01-15T05:20:10;3.40;;;2.33;;
1701;SDS011;848;48.354;10.064;2024-01-15T05:22:37;5.90;;;2.95;;
1701;SDS011;848;48.354;10.064;2024-01-15T05:25:04;5.28;;;2.70;;
1701;SDS011;848;48.354;10.064;2024-01-15T05:27:32;5.40;;;3.17;;
1701;SDS011;848;48.354;10.064;2024-01-15T05:29:59;5.97;;;3.83;;
1701;SDS011;848;48.354;10.064;2024-01-15T05:32:27;10.02;;;3.80;;
1701;SDS011;848;48.354;10.064;2024-01-15T05:34:54;4.07;;;2.15;;
1701;SDS011;848;48.354;10.064;2024-01-15T05:37:21;6.28;;;2.75;;
1701;SDS011;848;48.354;10.064;2024-01-15T05:39:48;11.10;;;3.90;;
1701;SDS011;848;48.354;10.064;2024-01-15T05:42:15;6.78;;;3.25;;
1701;SDS011;848;48.354;10.064;2024-01-15T05:44:41;5.80;;;2.90;;
1701;SDS011;848;48.354;10.064;2024-01-15T05:47:08;8.68;;;3.72;;
1701;SDS011;848;48.354;10.064;2024-01-15T05:49:36;7.57;;;3.35;;
1701;SDS011;848;48.354;10.064;2024-01-15T05:52:04;4.95;;;3.08;;
1701;SDS011;848;48.354;10.064;2024-01-15T05:54:31;7.38;;;3.30;;
1701;SDS011;848;48.354;10.064;2024-01-15T05:56:57;7.70;;;4.35;;
1701;SDS011;848;48.354;10.064;2024-01-15T05:59:24;7.50;;;3.70;;
1701;SDS011;848;48.354;10.064;2024-01-15T06:01:51;8.18;;;3.70;;
1701;SDS011;848;48.354;10.064;2024-01-15T06:04:18;8.98;;;4.13;;
1701;SDS011;848;48.354;10.064;2024-01-15T06:06:46;13.32;;;9.35;;
1701;SDS011;848;48.354;10.064;2024-01-15T06:09:13;8.73;;;4.43;;
1701;SDS011;848;48.354;10.064;2024-01-15T06:11:40;10.65;;;5.97;;
1701;SDS011;848;48.354;10.064;2024-01-15T06:14:07;7.53;;;4.43;;
1701;SDS011;848;48.354;10.064;2024-01-15T06:16:33;8.88;;;4.20;;
1701;SDS011;848;48.354;10.064;2024-01-15T06:19:00;10.75;;;5.55;;
1701;SDS011;848;48.354;10.064;2024-01-15T06:21:28;6.18;;;3.42;;
1701;SDS011;848;48.354;10.064;2024-01-15T06:23:56;9.35;;;3.83;;
1701;SDS011;848;48.354;10.064;2024-01-15T06:26:23;8.90;;;5.10;;
1701;SDS011;848;48.354;10.064;2024-01-15T06:28:50;4.90;;;3.10;;
1701;SDS011;848;48.354;10.064;2024-01-15T06:31:17;7.65;;;4.07;;
1701;SDS011;848;48.354;10.064;2024-01-15T06:33:43;9.05;;;3.65;;
1701;SDS011;848;48.354;10.064;2024-01-15T06:36:12;6.57;;;3.38;;
1701;SDS011;848;48.354;10.064;2024-01-15T06:38:39;8.70;;;4.38;;
1701;SDS011;848;48.354;10.064;2024-01-15T06:41:07;3.78;;;3.45;;
1701;SDS011;848;48.354;10.064;2024-01-15T06:43:34;6.75;;;3.85;;
1701;SDS011;848;48.354;10.064;2024-01-15T06:46:01;7.72;;;4.30;;
1701;SDS011;848;48.354;10.064;2024-01-15T06:48:28;9.00;;;4.20;;
1701;SDS011;848;48.354;10.064;2024-01-15T06:50:55;6.95;;;4.68;;
1701;SDS011;848;48.354;10.064;2024-01-15T06:53:22;6.00;;;3.60;;
1701;SDS011;848;48.354;10.064;2024-01-15T06:55:48;7.38;;;4.20;;
1701;SDS011;848;48.354;10.064;2024-01-15T06:58:17;8.88;;;3.20;;
1701;SDS011;848;48.354;10.064;2024-01-15T07:00:44;11.18;;;4.97;;
1701;SDS011;848;48.354;10.064;2024-01-15T07:03:11;11.55;;;4.25;;
1701;SDS011;848;48.354;10.064;2024-01-15T07:05:38;8.35;;;3.47;;
1701;SDS011;848;48.354;10.064;2024-01-15T07:08:05;14.15;;;4.05;;
1701;SDS011;848;48.354;10.064;2024-01-15T07:10:32;6.13;;;3.35;;
1701;SDS011;848;48.354;10.064;2024-01-15T07:12:58;11.07;;;4.60;;
1701;SDS011;848;48.354;10.064;2024-01-15T07:15:27;6.30;;;3.47;;
1701;SDS011;848;48.354;10.064;2024-01-15T07:17:54;9.07;;;4.43;;
1701;SDS011;848;48.354;10.064;2024-01-15T07:20:21;10.50;;;3.83;;
1701;SDS011;848;48.354;10.064;2024-01-15T07:22:48;7.93;;;3.55;;
1701;SDS011;848;48.354;10.064;2024-01-15T07:25:15;6.85;;;3.60;;
1701;SDS011;848;48.354;10.064;2024-01-15T07:27:42;10.35;;;4.90;;
1701;SDS011;848;48.354;10.064;2024-01-15T07:30:10;6.20;;;4.05;;
1701;SDS011;848;48.354;10.064;2024-01-15T07:32:39;8.52;;;4.50;;
1701;SDS011;848;48.354;10.064;2024-01-15T07:35:07;6.75;;;3.60;;
1701;SDS011;848;48.354;10.064;2024-01-15T07:37:35;4.20;;;3.53;;
1701;SDS011;848;48.354;10.064;2024-01-15T07:40:02;8.68;;;3.90;;
1701;SDS011;848;48.354;10.064;2024-01-15T07:42:31;8.40;;;3.90;;
1701;SDS011;848;48.354;10.064;2024-01-15T07:45:01;11.70;;;4.35;;
1701;SDS011;848;48.354;10.064;2024-01-15T07:47:28;7.13;;;3.65;;
1701;SDS011;848;48.354;10.064;2024-01-15T07:49:56;9.63;;;3.75;;
1701;SDS011;848;48.354;10.064;2024-01-15T07:52:23;6.57;;;3.30;;
1701;SDS011;848;48.354;10.064;2024-01-15T07:54:50;8.18;;;3.45;;
1701;SDS011;848;48.354;10.064;2024-01-15T07:57:17;8.13;;;3.90;;
1701;SDS011;848;48.354;10.064;2024-01-15T07:59:44;5.10;;;3.75;;
1701;SDS011;848;48.354;10.064;2024-01-15T08:02:11;8.40;;;2.75;;
1701;SDS011;848;48.354;10.064;2024-01-15T08:04:38;9.82;;;4.00;;
1701;SDS011;848;48.354;10.064;2024-01-15T08:07:06;10.63;;;4.57;;
1701;SDS011;848;48.354;10.064;2024-01-15T08:09:33;15.50;;;7.68;;
1701;SDS011;848;48.354;10.064;2024-01-15T08:12:00;9.50;;;4.75;;
1701;SDS011;848;48.354;10.064;2024-01-15T08:14:26;7.68;;;4.30;;
1701;SDS011;848;48.354;10.064;2024-01-15T08:16:53;9.23;;;5.32;;
1701;SDS011;848;48.354;10.064;2024-01-15T08:19:20;11.65;;;5.32;;
1701;SDS011;848;48.354;10.064;2024-01-15T08:21:47;4.70;;;3.30;;
1701;SDS011;848;48.354;10.064;2024-01-15T08:24:15;2.97;;;1.95;;
1701;SDS011;848;48.354;10.064;2024-01-15T08:26:42;10.98;;;5.18;;
1701;SDS011;848;48.354;10.064;2024-01-15T08:29:10;6.68;;;4.60;;
1701;SDS011;848;48.354;10.064;2024-01-15T08:31:37;6.45;;;2.80;;
1701;SDS011;848;48.354;10.064;2024-01-15T08:34:04;4.15;;;3.33;;
1701;SDS011;848;48.354;10.064;2024-01-15T08:36:31;10.55;;;5.30;;
1701;SDS011;848;48.354;10.064;2024-01-15T08:38:59;5.38;;;3.13;;
1701;SDS011;848;48.354;10.064;2024-01-15T08:41:28;7.50;;;4.03;;
1701;SDS011;848;48.354;10.064;2024-01-15T08:43:55;8.10;;;4.40;;
1701;SDS011;848;48.354;10.064;2024-01-15T08:46:21;4.30;;;2.83;;
1701;SDS011;848;48.354;10.064;2024-01-15T08:48:49;3.78;;;1.85;;
1701;SDS011;848;48.354;10.064;2024-01-15T08:51:16;9.18;;;2.65;;
1701;SDS011;848;48.354;10.064;2024-01-15T08:53:43;5.30;;;2.30;;
1701;SDS011;848;48.354;10.064;2024-01-15T08:56:10;2.25;;;2.00;;
1701;SDS011;848;48.354;10.064;2024-01-15T08:58:38;6.55;;;2.67;;
1701;SDS011;848;48.354;10.064;2024-01-15T09:01:05;4.38;;;2.50;;
1701;SDS011;848;48.354;10.064;2024-01-15T09:03:32;7.03;;;3.65;;
1701;SDS011;848;48.354;10.064;2024-01-15T09:05:59;4.80;;;3.50;;
1701;SDS011;848;48.354;10.064;2024-01-15T09:08:26;8.52;;;2.13;;
1701;SDS011;848;48.354;10.064;2024-01-15T09:10:53;5.55;;;2.72;;
1701;SDS011;848;48.354;10.064;2024-01-15T09:13:20;9.05;;;4.32;;
1701;SDS011;848;48.354;10.064;2024-01-15T09:15:48;6.07;;;3.10;;
1701;SDS011;848;48.354;10.064;2024-01-15T09:18:15;7.43;;;3.05;;
1701;SDS011;848;48.354;10.064;2024-01-15T09:20:42;3.30;;;2.47;;
1701;SDS011;848;48.354;10.064;2024-01-15T09:23:09;4.07;;;2.30;;
1701;SDS011;848;48.354;10.064;2024-01-15T09:25:36;5.65;;;2.88;;
1701;SDS011;848;48.354;10.064;2024-01-15T09:28:03;4.50;;;1.80;;
1701;SDS011;848;48.354;10.064;2024-01-15T09:30:30;2.78;;;1.30;;
1701;SDS011;848;48.354;10.064;2024-01-15T09:32:58;1.85;;;1.60;;
1701;SDS011;848;48.354;10.064;2024-01-15T09:35:25;4.82;;;1.67;;
1701;SDS011;848;48.354;10.064;2024-01-15T09:37:52;1.85;;;1.25;;
1701;SDS011;848;48.354;10.064;2024-01-15T09:40:19;7.22;;;2.10;;
1701;SDS011;848;48.354;10.064;2024-01-15T09:42:47;2.13;;;1.65;;
1701;SDS011;848;48.354;10.064;2024-01-15T09:45:14;2.15;;;1.20;;
1701;SDS011;848;48.354;10.064;2024-01-15T09:47:41;3.00;;;2.10;;
1701;SDS011;848;48.354;10.064;2024-01-15T09:50:10;1.85;;;1.73;;
1701;SDS011;848;48.354;10.064;2024-01-15T09:52:37;2.67;;;1.77;;
1701;SDS011;848;48.354;10.064;2024-01-15T09:55:05;1.45;;;1.35;;
1701;SDS011;848;48.354;10.064;2024-01-15T09:57:35;3.20;;;1.85;;
1701;SDS011;848;48.354;10.064;2024-01-15T10:00:03;1.67;;;1.55;;
1701;SDS011;848;48.354;10.064;2024-01-15T10:02:31;1.85;;;1.75;;
1701;SDS011;848;48.354;10.064;2024-01-15T10:04:58;2.08;;;1.65;;
1701;SDS011;848;48.354;10.064;2024-01-15T10:07:27;1.98;;;0.90;;
1701;SDS011;848;48.354;10.064;2024-01-15T10:09:55;2.28;;;1.08;;
1701;SDS011;848;48.354;10.064;2024-01-15T10:12:22;1.00;;;1.00;;
1701;SDS011;848;48.354;10.064;2024-01-15T10:14:50;2.40;;;1.65;;
1701;SDS011;848;48.354;10.064;2024-01-15T10:17:17;1.08;;;0.90;;
1701;SDS011;848;48.354;10.064;2024-01-15T10:19:44;1.50;;;1.40;;
1701;SDS011;848;48.354;10.064;2024-01-15T10:22:12;1.88;;;1.50;;
1701;SDS011;848;48.354;10.064;2024-01-15T10:24:41;1.30;;;1.20;;
1701;SDS011;848;48.354;10.064;2024-01-15T10:27:08;2.95;;;1.05;;
1701;SDS011;848;48.354;10.064;2024-01-15T10:29:36;2.70;;;1.55;;
1701;SDS011;848;48.354;10.064;2024-01-15T10:32:03;2.45;;;1.65;;
1701;SDS011;848;48.354;10.064;2024-01-15T10:34:33;2.33;;;1.50;;
1701;SDS011;848;48.354;10.064;2024-01-15T10:37:03;3.85;;;2.28;;
1701;SDS011;848;48.354;10.064;2024-01-15T10:39:30;2.05;;;1.15;;
1701;SDS011;848;48.354;10.064;2024-01-15T10:41:59;3.13;;;1.75;;
1701;SDS011;848;48.354;10.064;2024-01-15T10:44:26;1.80;;;1.15;;
1701;SDS011;848;48.354;10.064;2024-01-15T10:46:53;2.35;;;1.27;;
1701;SDS011;848;48.354;10.064;2024-01-15T10:49:21;2.70;;;1.35;;
1701;SDS011;848;48.354;10.064;2024-01-15T10:51:51;2.72;;;2.25;;
1701;SDS011;848;48.354;10.064;2024-01-15T10:54:19;1.75;;;1.13;;
1701;SDS011;848;48.354;10.064;2024-01-15T10:56:48;2.28;;;1.83;;
1701;SDS011;848;48.354;10.064;2024-01-15T10:59:18;0.80;;;0.80;;
1701;SDS011;848;48.354;10.064;2024-01-15T11:01:47;2.88;;;1.50;;
1701;SDS011;848;48.354;10.064;2024-01-15T11:04:15;2.60;;;1.23;;
1701;SDS011;848;48.354;10.064;2024-01-15T11:06:44;2.45;;;1.85;;
1701;SDS011;848;48.354;10.064;2024-01-15T11:09:12;1.00;;;0.90;;
1701;SDS011;848;48.354;10.064;2024-01-15T11:11:40;1.83;;;1.48;;
1701;SDS011;848;48.354;10.064;2024-01-15T11:14:08;2.63;;;1.48;;
1701;SDS011;848;48.354;10.064;2024-01-15T11:19:36;1.75;;;1.65;;
1701;SDS011;848;48.354;10.064;2024-01-15T11:22:05;5.05;;;1.45;;
1701;SDS011;848;48.354;10.064;2024-01-15T11:24:34;5.72;;;1.67;;
1701;SDS011;848;48.354;10.064;2024-01-15T11:27:02;1.73;;;1.63;;
1701;SDS011;848;48.354;10.064;2024-01-15T11:29:30;3.00;;;1.52;;
1701;SDS011;848;48.354;10.064;2024-01-15T11:31:59;4.68;;;3.40;;
1701;SDS011;848;48.354;10.064;2024-01-15T11:37:23;3.55;;;2.17;;
1701;SDS011;848;48.354;10.064;2024-01-15T11:39:53;2.38;;;1.83;;
1701;SDS011;848;48.354;10.064;2024-01-15T11:42:21;3.40;;;1.83;;
1701;SDS011;848;48.354;10.064;2024-01-15T11:44:48;4.30;;;2.40;;
1701;SDS011;848;48.354;10.064;2024-01-15T11:47:15;2.88;;;2.20;;
1701;SDS011;848;48.354;10.064;2024-01-15T11:50:01;5.10;;;3.65;;
1701;SDS011;848;48.354;10.064;2024-01-15T11:52:33;2.05;;;1.42;;
1701;SDS011;848;48.354;10.064;2024-01-15T11:55:02;3.47;;;2.45;;
1701;SDS011;848;48.354;10.064;2024-01-15T11:57:41;2.45;;;1.50;;
1701;SDS011;848;48.354;10.064;2024-01-15T12:00:12;4.35;;;3.67;;
1701;SDS011;848;48.354;10.064;2024-01-15T12:02:39;1.63;;;1.50;;
1701;SDS011;848;48.354;10.064;2024-01-15T12:05:08;2.83;;;1.77;;
1701;SDS011;848;48.354;10.064;2024-01-15T12:07:37;1.42;;;1.33;;
1701;SDS011;848;48.354;10.064;2024-01-15T12:10:07;1.90;;;1.45;;
1701;SDS011;848;48.354;10.064;2024-01-15T12:12:40;1.30;;;0.95;;
1701;SDS011;848;48.354;10.064;2024-01-15T12:15:15;6.65;;;1.38;;
1701;SDS011;848;48.354;10.064;2024-01-15T12:17:45;1.95;;;1.38;;
1701;SDS011;848;48.354;10.064;2024-01-15T12:20:14;1.92;;;1.63;;
1701;SDS011;848;48.354;10.064;2024-01-15T12:22:41;1.38;;;1.25;;
1701;SDS011;848;48.354;10.064;2024-01-15T12:25:09;1.95;;;1.63;;
1701;SDS011;848;48.354;10.064;2024-01-15T12:27:36;2.47;;;1.80;;
1701;SDS011;848;48.354;10.064;2024-01-15T12:30:06;2.85;;;1.05;;
1701;SDS011;848;48.354;10.064;2024-01-15T12:32:34;2.10;;;1.58;;
1701;SDS011;848;48.354;10.064;2024-01-15T12:35:02;1.27;;;1.17;;
1701;SDS011;848;48.354;10.064;2024-01-15T12:37:31;1.40;;;1.30;;
1701;SDS011;848;48.354;10.064;2024-01-15T12:39:58;1.17;;;0.98;;
1701;SDS011;848;48.354;10.064;2024-01-15T12:42:28;1.30;;;1.20;;
1701;SDS011;848;48.354;10.064;2024-01-15T12:44:55;3.90;;;1.48;;
1701;SDS011;848;48.354;10.064;2024-01-15T12:47:22;2.10;;;1.48;;
1701;SDS011;848;48.354;10.064;2024-01-15T12:49:51;1.38;;;1.27;;
1701;SDS011;848;48.354;10.064;2024-01-15T12:52:19;2.55;;;2.20;;
1701;SDS011;848;48.354;10.064;2024-01-15T12:54:48;1.30;;;1.20;;
1701;SDS011;848;48.354;10.064;2024-01-15T12:57:15;1.23;;;1.13;;
1701;SDS011;848;48.354;10.064;2024-01-15T12:59:42;2.00;;;1.60;;
1701;SDS011;848;48.354;10.064;2024-01-15T13:02:10;2.67;;;2.10;;
1701;SDS011;848;48.354;10.064;2024-01-15T13:04:37;2.55;;;1.70;;
1701;SDS011;848;48.354;10.064;2024-01-15T13:07:04;2.30;;;1.40;;
1701;SDS011;848;48.354;10.064;2024-01-15T13:09:31;3.42;;;2.03;;
1701;SDS011;848;48.354;10.064;2024-01-15T13:12:00;3.25;;;1.88;;
1701;SDS011;848;48.354;10.064;2024-01-15T13:14:27;2.42;;;2.08;;
1701;SDS011;848;48.354;10.064;2024-01-15T13:16:54;4.38;;;2.30;;
1701;SDS011;848;48.354;10.064;2024-01-15T13:19:22;2.47;;;2.13;;
1701;SDS011;848;48.354;10.064;2024-01-15T13:21:49;4.97;;;2.58;;
1701;SDS011;848;48.354;10.064;2024-01-15T13:24:16;6.30;;;3.03;;
1701;SDS011;848;48.354;10.064;2024-01-15T13:26:43;7.55;;;4.93;;
1701;SDS011;848;48.354;10.064;2024-01-15T13:29:11;4.07;;;2.80;;
1701;SDS011;848;48.354;10.064;2024-01-15T13:31:39;3.10;;;2.20;;
1701;SDS011;848;48.354;10.064;2024-01-15T13:34:05;2.72;;;2.00;;
1701;SDS011;848;48.354;10.064;2024-01-15T13:36:32;5.05;;;2.80;;
1701;SDS011;848;48.354;10.064;2024-01-15T13:38:59;4.25;;;3.35;;
1701;SDS011;848;48.354;10.064;2024-01-15T13:41:26;10.48;;;3.22;;
1701;SDS011;848;48.354;10.064;2024-01-15T13:43:54;3.70;;;2.38;;
1701;SDS011;848;48.354;10.064;2024-01-15T13:46:24;3.13;;;1.95;;
1701;SDS011;848;48.354;10.064;2024-01-15T13:48:52;2.28;;;1.48;;
1701;SDS011;848;48.354;10.064;2024-01-15T13:51:21;4.05;;;2.08;;
1701;SDS011;848;48.354;10.064;2024-01-15T13:53:48;1.85;;;1.60;;
1701;SDS011;848;48.354;10.064;2024-01-15T13:56:15;4.07;;;1.63;;
1701;SDS011;848;48.354;10.064;2024-01-15T13:58:42;1.45;;;1.10;;
1701;SDS011;848;48.354;10.064;2024-01-15T14:01:09;2.05;;;1.52;;
1701;SDS011;848;48.354;10.064;2024-01-15T14:03:37;2.90;;;1.45;;
1701;SDS011;848;48.354;10.064;2024-01-15T14:06:04;7.05;;;2.90;;
1701;SDS011;848;48.354;10.064;2024-01-15T14:08:34;1.25;;;1.15;;
1701;SDS011;848;48.354;10.064;2024-01-15T14:11:04;3.17;;;1.48;;
1701;SDS011;848;48.354;10.064;2024-01-15T14:13:32;1.23;;;0.75;;
1701;SDS011;848;48.354;10.064;2024-01-15T14:15:58;4.78;;;1.90;;
1701;SDS011;848;48.354;10.064;2024-01-15T14:18:26;2.58;;;2.38;;
1701;SDS011;848;48.354;10.064;2024-01-15T14:20:54;2.03;;;1.52;;
1701;SDS011;848;48.354;10.064;2024-01-15T14:23:21;1.95;;;0.73;;
1701;SDS011;848;48.354;10.064;2024-01-15T14:25:48;1.60;;;1.50;;
1701;SDS011;848;48.354;10.064;2024-01-15T14:28:15;1.70;;;1.35;;
1701;SDS011;848;48.354;10.064;2024-01-15T14:30:42;1.23;;;1.13;;
1701;SDS011;848;48.354;10.064;2024-01-15T14:33:09;2.72;;;1.85;;
1701;SDS011;848;48.354;10.064;2024-01-15T14:35:36;1.58;;;0.90;;
1701;SDS011;848;48.354;10.064;2024-01-15T14:38:04;1.98;;;1.73;;
1701;SDS011;848;48.354;10.064;2024-01-15T14:40:32;2.10;;;1.80;;
1701;SDS011;848;48.354;10.064;2024-01-15T14:43:00;1.48;;;1.38;;
1701;SDS011;848;48.354;10.064;2024-01-15T14:45:29;1.00;;;1.00;;
1701;SDS011;848;48.354;10.064;2024-01-15T14:47:56;7.55;;;3.35;;
1701;SDS011;848;48.354;10.064;2024-01-15T14:50:23;4.13;;;2.95;;
1701;SDS011;848;48.354;10.064;2024-01-15T14:52:51;2.70;;;1.60;;
1701;SDS011;848;48.354;10.064;2024-01-15T14:55:20;2.95;;;2.47;;
1701;SDS011;848;48.354;10.064;2024-01-15T14:57:48;3.40;;;1.63;;
1701;SDS011;848;48.354;10.064;2024-01-15T15:00:15;2.40;;;1.98;;
1701;SDS011;848;48.354;10.064;2024-01-15T15:02:42;1.65;;;1.30;;
1701;SDS011;848;48.354;10.064;2024-01-15T15:05:10;0.80;;;0.77;;
1701;SDS011;848;48.354;10.064;2024-01-15T15:07:38;1.90;;;1.80;;
1701;SDS011;848;48.354;10.064;2024-01-15T15:10:06;1.65;;;1.42;;
1701;SDS011;848;48.354;10.064;2024-01-15T15:12:35;4.35;;;1.98;;
1701;SDS011;848;48.354;10.064;2024-01-15T15:15:02;1.77;;;1.52;;
1701;SDS011;848;48.354;10.064;2024-01-15T15:17:29;2.08;;;1.85;;
1701;SDS011;848;48.354;10.064;2024-01-15T15:19:57;3.97;;;1.77;;
1701;SDS011;848;48.354;10.064;2024-01-15T15:22:24;2.72;;;1.65;;